sensor_id;sensor_type;location;lat;lon;timestamp;P1;durP1;ratioP1;P2;durP2;ratioP2
56005;SDS011;41888;44.696;10.522;2023-04-16T00:00:51;5.47;;;2.88;;
56005;SDS011;41888;44.696;10.522;2023-04-16T00:03:17;5.65;;;3.00;;
56005;SDS011;41888;44.696;10.522;2023-04-16T00:05:43;6.78;;;2.67;;
56005;SDS011;41888;44.696;10.522;2023-04-16T00:08:10;6.53;;;2.63;;
56005;SDS011;41888;44.696;10.522;2023-04-16T00:10:36;8.00;;;3.35;;
56005;SDS011;41888;44.696;10.522;2023-04-16T00:13:02;6.35;;;3.20;;
56005;SDS011;41888;44.696;10.522;2023-04-16T00:15:28;6.70;;;2.92;;
56005;SDS011;41888;44.696;10.522;2023-04-16T00:17:54;8.52;;;2.88;;
56005;SDS011;41888;44.696;10.522;2023-04-16T00:20:21;10.05;;;4.22;;
56005;SDS011;41888;44.696;10.522;2023-04-16T00:22:47;5.95;;;2.97;;
56005;SDS011;41888;44.696;10.522;2023-04-16T00:25:13;5.82;;;3.03;;
56005;SDS011;41888;44.696;10.522;2023-04-16T00:27:39;7.00;;;3.35;;
56005;SDS011;41888;44.696;10.522;2023-04-16T00:30:05;7.05;;;3.42;;
56005;SDS011;41888;44.696;10.522;2023-04-16T00:32:32;9.90;;;3.83;;
56005;SDS011;41888;44.696;10.522;2023-04-16T00:34:58;7.65;;;3.78;;
56005;SDS011;41888;44.696;10.522;2023-04-16T00:37:24;5.38;;;3.50;;
56005;SDS011;41888;44.696;10.522;2023-04-16T00:39:51;9.02;;;3.25;;
56005;SDS011;41888;44.696;10.522;2023-04-16T00:42:17;7.53;;;3.55;;
56005;SDS011;41888;44.696;10.522;2023-04-16T00:44:43;8.23;;;3.90;;
56005;SDS011;41888;44.696;10.522;2023-04-16T00:47:09;9.98;;;3.63;;
56005;SDS011;41888;44.696;10.522;2023-04-16T00:49:35;9.18;;;3.13;;
56005;SDS011;41888;44.696;10.522;2023-04-16T00:52:02;4.00;;;3.45;;
56005;SDS011;41888;44.696;10.522;2023-04-16T00:54:28;7.35;;;3.67;;
56005;SDS011;41888;44.696;10.522;2023-04-16T00:56:56;5.13;;;3.03;;
56005;SDS011;41888;44.696;10.522;2023-04-16T00:59:23;6.50;;;3.13;;
56005;SDS011;41888;44.696;10.522;2023-04-16T01:01:50;8.65;;;3.08;;
56005;SDS011;41888;44.696;10.522;2023-04-16T01:04:16;5.28;;;3.28;;
56005;SDS011;41888;44.696;10.522;2023-04-16T01:06:43;11.30;;;3.10;;
56005;SDS011;41888;44.696;10.522;2023-04-16T01:09:09;7.80;;;3.50;;
56005;SDS011;41888;44.696;10.522;2023-04-16T01:11:35;4.95;;;3.03;;
56005;SDS011;41888;44.696;10.522;2023-04-16T01:14:02;4.50;;;3.20;;
56005;SDS011;41888;44.696;10.522;2023-04-16T01:16:28;9.05;;;3.22;;
56005;SDS011;41888;44.696;10.522;2023-04-16T01:18:54;6.95;;;3.40;;
56005;SDS011;41888;44.696;10.522;2023-04-16T01:21:21;7.85;;;3.60;;
56005;SDS011;41888;44.696;10.522;2023-04-16T01:23:47;8.20;;;3.88;;
56005;SDS011;41888;44.696;10.522;2023-04-16T01:26:13;5.53;;;3.65;;
56005;SDS011;41888;44.696;10.522;2023-04-16T01:28:39;6.93;;;3.25;;
56005;SDS011;41888;44.696;10.522;2023-04-16T01:31:06;7.85;;;3.35;;
56005;SDS011;41888;44.696;10.522;2023-04-16T01:33:32;7.20;;;3.78;;
56005;SDS011;41888;44.696;10.522;2023-04-16T01:35:58;6.35;;;3.05;;
56005;SDS011;41888;44.696;10.522;2023-04-16T01:38:24;4.70;;;3.53;;
56005;SDS011;41888;44.696;10.522;2023-04-16T01:40:54;6.68;;;3.03;;
56005;SDS011;41888;44.696;10.522;2023-04-16T01:43:24;5.82;;;3.90;;
56005;SDS011;41888;44.696;10.522;2023-04-16T01:45:51;7.85;;;3.05;;
56005;SDS011;41888;44.696;10.522;2023-04-16T01:48:23;6.97;;;3.15;;
56005;SDS011;41888;44.696;10.522;2023-04-16T01:50:49;6.68;;;3.22;;
56005;SDS011;41888;44.696;10.522;2023-04-16T01:53:16;7.45;;;3.45;;
56005;SDS011;41888;44.696;10.522;2023-04-16T01:55:42;20.58;;;4.18;;
56005;SDS011;41888;44.696;10.522;2023-04-16T01:58:08;4.90;;;2.88;;
56005;SDS011;41888;44.696;10.522;2023-04-16T02:00:35;6.72;;;3.15;;
56005;SDS011;41888;44.696;10.522;2023-04-16T02:03:01;6.53;;;3.33;;
56005;SDS011;41888;44.696;10.522;2023-04-16T02:05:27;7.25;;;3.45;;
56005;SDS011;41888;44.696;10.522;2023-04-16T02:07:53;6.15;;;3.72;;
56005;SDS011;41888;44.696;10.522;2023-04-16T02:10:20;9.77;;;4.20;;
56005;SDS011;41888;44.696;10.522;2023-04-16T02:12:46;6.65;;;3.53;;
56005;SDS011;41888;44.696;10.522;2023-04-16T02:15:12;5.82;;;3.13;;
56005;SDS011;41888;44.696;10.522;2023-04-16T02:17:39;9.07;;;3.80;;
56005;SDS011;41888;44.696;10.522;2023-04-16T02:20:06;5.55;;;3.50;;
56005;SDS011;41888;44.696;10.522;2023-04-16T02:22:34;11.52;;;4.85;;
56005;SDS011;41888;44.696;10.522;2023-04-16T02:25:00;6.00;;;3.53;;
56005;SDS011;41888;44.696;10.522;2023-04-16T02:27:26;6.63;;;3.55;;
56005;SDS011;41888;44.696;10.522;2023-04-16T02:29:52;5.35;;;3.70;;
56005;SDS011;41888;44.696;10.522;2023-04-16T02:32:18;11.65;;;4.47;;
56005;SDS011;41888;44.696;10.522;2023-04-16T02:34:45;8.50;;;4.30;;
56005;SDS011;41888;44.696;10.522;2023-04-16T02:37:11;7.68;;;3.42;;
56005;SDS011;41888;44.696;10.522;2023-04-16T02:39:39;15.23;;;4.90;;
56005;SDS011;41888;44.696;10.522;2023-04-16T02:42:05;8.27;;;4.57;;
56005;SDS011;41888;44.696;10.522;2023-04-16T02:44:31;8.52;;;4.75;;
56005;SDS011;41888;44.696;10.522;2023-04-16T02:46:57;6.30;;;3.67;;
56005;SDS011;41888;44.696;10.522;2023-04-16T02:49:23;10.43;;;4.00;;
56005;SDS011;41888;44.696;10.522;2023-04-16T02:51:49;7.93;;;3.83;;
56005;SDS011;41888;44.696;10.522;2023-04-16T02:54:15;7.15;;;3.45;;
56005;SDS011;41888;44.696;10.522;2023-04-16T02:56:42;8.77;;;4.05;;
56005;SDS011;41888;44.696;10.522;2023-04-16T02:59:09;9.77;;;4.25;;
56005;SDS011;41888;44.696;10.522;2023-04-16T03:01:36;6.80;;;3.80;;
56005;SDS011;41888;44.696;10.522;2023-04-16T03:04:02;8.90;;;3.72;;
56005;SDS011;41888;44.696;10.522;2023-04-16T03:06:28;9.00;;;4.28;;
56005;SDS011;41888;44.696;10.522;2023-04-16T03:08:55;9.35;;;4.03;;
56005;SDS011;41888;44.696;10.522;2023-04-16T03:11:21;7.85;;;3.60;;
56005;SDS011;41888;44.696;10.522;2023-04-16T03:13:47;7.40;;;3.58;;
56005;SDS011;41888;44.696;10.522;2023-04-16T03:16:14;7.22;;;3.47;;
56005;SDS011;41888;44.696;10.522;2023-04-16T03:18:40;7.25;;;3.53;;
56005;SDS011;41888;44.696;10.522;2023-04-16T03:21:06;6.93;;;3.50;;
56005;SDS011;41888;44.696;10.522;2023-04-16T03:23:33;7.07;;;3.47;;
56005;SDS011;41888;44.696;10.522;2023-04-16T03:26:00;8.25;;;4.07;;
56005;SDS011;41888;44.696;10.522;2023-04-16T03:28:26;6.97;;;3.40;;
56005;SDS011;41888;44.696;10.522;2023-04-16T03:30:52;6.22;;;3.35;;
56005;SDS011;41888;44.696;10.522;2023-04-16T03:33:19;7.82;;;3.45;;
56005;SDS011;41888;44.696;10.522;2023-04-16T03:35:45;8.32;;;3.15;;
56005;SDS011;41888;44.696;10.522;2023-04-16T03:38:18;5.32;;;3.40;;
56005;SDS011;41888;44.696;10.522;2023-04-16T03:40:44;7.93;;;3.13;;
56005;SDS011;41888;44.696;10.522;2023-04-16T03:43:10;4.60;;;2.65;;
56005;SDS011;41888;44.696;10.522;2023-04-16T03:45:42;7.05;;;3.05;;
56005;SDS011;41888;44.696;10.522;2023-04-16T03:48:09;5.05;;;2.95;;
56005;SDS011;41888;44.696;10.522;2023-04-16T03:50:35;7.55;;;3.25;;
56005;SDS011;41888;44.696;10.522;2023-04-16T03:53:01;5.97;;;2.65;;
56005;SDS011;41888;44.696;10.522;2023-04-16T03:55:27;7.05;;;3.33;;
56005;SDS011;41888;44.696;10.522;2023-04-16T03:57:53;6.85;;;2.80;;
56005;SDS011;41888;44.696;10.522;2023-04-16T04:00:20;6.60;;;3.58;;
56005;SDS011;41888;44.696;10.522;2023-04-16T04:02:46;5.38;;;2.90;;
56005;SDS011;41888;44.696;10.522;2023-04-16T04:05:12;6.93;;;3.88;;
56005;SDS011;41888;44.696;10.522;2023-04-16T04:07:38;5.35;;;2.85;;
56005;SDS011;41888;44.696;10.522;2023-04-16T04:10:04;6.43;;;3.65;;
56005;SDS011;41888;44.696;10.522;2023-04-16T04:12:31;8.32;;;3.35;;
56005;SDS011;41888;44.696;10.522;2023-04-16T04:14:57;6.22;;;4.18;;
56005;SDS011;41888;44.696;10.522;2023-04-16T04:17:23;10.05;;;4.07;;
56005;SDS011;41888;44.696;10.522;2023-04-16T04:19:50;5.82;;;3.95;;
56005;SDS011;41888;44.696;10.522;2023-04-16T04:22:17;9.50;;;3.83;;
56005;SDS011;41888;44.696;10.522;2023-04-16T04:24:44;7.68;;;3.63;;
56005;SDS011;41888;44.696;10.522;2023-04-16T04:27:10;7.55;;;3.53;;
56005;SDS011;41888;44.696;10.522;2023-04-16T04:29:36;9.98;;;5.32;;
56005;SDS011;41888;44.696;10.522;2023-04-16T04:32:02;9.35;;;4.00;;
56005;SDS011;41888;44.696;10.522;2023-04-16T04:34:28;11.48;;;3.58;;
56005;SDS011;41888;44.696;10.522;2023-04-16T04:36:54;9.32;;;3.92;;
56005;SDS011;41888;44.696;10.522;2023-04-16T04:39:21;9.30;;;3.35;;
56005;SDS011;41888;44.696;10.522;2023-04-16T04:41:47;6.75;;;3.60;;
56005;SDS011;41888;44.696;10.522;2023-04-16T04:44:13;7.68;;;3.33;;
56005;SDS011;41888;44.696;10.522;2023-04-16T04:46:39;12.32;;;4.28;;
56005;SDS011;41888;44.696;10.522;2023-04-16T04:49:06;7.00;;;3.47;;
56005;SDS011;41888;44.696;10.522;2023-04-16T04:51:32;7.78;;;3.97;;
56005;SDS011;41888;44.696;10.522;2023-04-16T04:53:58;4.68;;;3.00;;
56005;SDS011;41888;44.696;10.522;2023-04-16T04:56:24;7.68;;;3.60;;
56005;SDS011;41888;44.696;10.522;2023-04-16T04:58:51;9.90;;;3.80;;
56005;SDS011;41888;44.696;10.522;2023-04-16T05:01:17;10.20;;;5.50;;
56005;SDS011;41888;44.696;10.522;2023-04-16T05:03:43;9.98;;;3.40;;
56005;SDS011;41888;44.696;10.522;2023-04-16T05:06:09;5.88;;;3.70;;
56005;SDS011;41888;44.696;10.522;2023-04-16T05:08:35;6.22;;;3.15;;
56005;SDS011;41888;44.696;10.522;2023-04-16T05:11:01;8.50;;;3.53;;
56005;SDS011;41888;44.696;10.522;2023-04-16T05:13:27;8.85;;;4.13;;
56005;SDS011;41888;44.696;10.522;2023-04-16T05:15:54;6.03;;;3.30;;
56005;SDS011;41888;44.696;10.522;2023-04-16T05:18:20;6.05;;;3.03;;
56005;SDS011;41888;44.696;10.522;2023-04-16T05:20:46;5.28;;;2.53;;
56005;SDS011;41888;44.696;10.522;2023-04-16T05:23:12;7.15;;;2.47;;
56005;SDS011;41888;44.696;10.522;2023-04-16T05:25:39;6.47;;;2.72;;
56005;SDS011;41888;44.696;10.522;2023-04-16T05:28:05;4.20;;;2.45;;
56005;SDS011;41888;44.696;10.522;2023-04-16T05:30:32;5.25;;;3.13;;
56005;SDS011;41888;44.696;10.522;2023-04-16T05:32:58;4.40;;;2.30;;
56005;SDS011;41888;44.696;10.522;2023-04-16T05:35:24;9.88;;;2.92;;
56005;SDS011;41888;44.696;10.522;2023-04-16T05:37:50;8.75;;;2.97;;
56005;SDS011;41888;44.696;10.522;2023-04-16T05:40:17;10.50;;;3.80;;
56005;SDS011;41888;44.696;10.522;2023-04-16T05:42:43;4.72;;;2.45;;
56005;SDS011;41888;44.696;10.522;2023-04-16T05:45:09;7.45;;;3.40;;
56005;SDS011;41888;44.696;10.522;2023-04-16T05:47:35;7.55;;;2.85;;
56005;SDS011;41888;44.696;10.522;2023-04-16T05:50:01;5.80;;;2.70;;
56005;SDS011;41888;44.696;10.522;2023-04-16T05:52:28;5.47;;;3.28;;
56005;SDS011;41888;44.696;10.522;2023-04-16T05:54:54;9.25;;;2.95;;
56005;SDS011;41888;44.696;10.522;2023-04-16T05:57:20;11.10;;;2.70;;
56005;SDS011;41888;44.696;10.522;2023-04-16T05:59:46;5.57;;;2.30;;
56005;SDS011;41888;44.696;10.522;2023-04-16T06:02:12;6.88;;;2.60;;
56005;SDS011;41888;44.696;10.522;2023-04-16T06:04:38;9.60;;;4.05;;
56005;SDS011;41888;44.696;10.522;2023-04-16T06:07:05;6.75;;;2.65;;
56005;SDS011;41888;44.696;10.522;2023-04-16T06:09:31;6.78;;;2.80;;
56005;SDS011;41888;44.696;10.522;2023-04-16T06:11:57;6.90;;;2.53;;
56005;SDS011;41888;44.696;10.522;2023-04-16T06:14:25;6.07;;;2.97;;
56005;SDS011;41888;44.696;10.522;2023-04-16T06:16:51;6.78;;;3.05;;
56005;SDS011;41888;44.696;10.522;2023-04-16T06:19:17;8.88;;;3.33;;
56005;SDS011;41888;44.696;10.522;2023-04-16T06:21:43;5.85;;;2.65;;
56005;SDS011;41888;44.696;10.522;2023-04-16T06:24:09;6.20;;;2.63;;
56005;SDS011;41888;44.696;10.522;2023-04-16T06:26:37;9.18;;;3.67;;
56005;SDS011;41888;44.696;10.522;2023-04-16T06:29:03;7.38;;;4.03;;
56005;SDS011;41888;44.696;10.522;2023-04-16T06:31:29;5.10;;;2.92;;
56005;SDS011;41888;44.696;10.522;2023-04-16T06:33:55;7.28;;;3.85;;
56005;SDS011;41888;44.696;10.522;2023-04-16T06:36:22;6.65;;;3.70;;
56005;SDS011;41888;44.696;10.522;2023-04-16T06:38:48;6.80;;;3.90;;
56005;SDS011;41888;44.696;10.522;2023-04-16T06:41:14;7.35;;;3.55;;
56005;SDS011;41888;44.696;10.522;2023-04-16T06:43:40;5.50;;;3.70;;
56005;SDS011;41888;44.696;10.522;2023-04-16T06:46:07;7.60;;;4.05;;
56005;SDS011;41888;44.696;10.522;2023-04-16T06:48:34;7.05;;;4.00;;
56005;SDS011;41888;44.696;10.522;2023-04-16T06:51:00;6.32;;;3.50;;
56005;SDS011;41888;44.696;10.522;2023-04-16T06:53:26;7.97;;;3.90;;
56005;SDS011;41888;44.696;10.522;2023-04-16T06:55:52;6.72;;;3.88;;
56005;SDS011;41888;44.696;10.522;2023-04-16T06:58:18;7.60;;;4.13;;
56005;SDS011;41888;44.696;10.522;2023-04-16T07:00:46;7.05;;;4.32;;
56005;SDS011;41888;44.696;10.522;2023-04-16T07:03:12;7.18;;;3.47;;
56005;SDS011;41888;44.696;10.522;2023-04-16T07:05:39;8.48;;;4.20;;
56005;SDS011;41888;44.696;10.522;2023-04-16T07:08:05;5.85;;;3.50;;
56005;SDS011;41888;44.696;10.522;2023-04-16T07:10:31;8.13;;;3.92;;
56005;SDS011;41888;44.696;10.522;2023-04-16T07:12:57;9.88;;;4.45;;
56005;SDS011;41888;44.696;10.522;2023-04-16T07:15:25;7.60;;;3.63;;
56005;SDS011;41888;44.696;10.522;2023-04-16T07:17:51;8.43;;;3.85;;
56005;SDS011;41888;44.696;10.522;2023-04-16T07:20:17;8.90;;;3.47;;
56005;SDS011;41888;44.696;10.522;2023-04-16T07:22:43;8.80;;;3.40;;
56005;SDS011;41888;44.696;10.522;2023-04-16T07:25:10;8.18;;;4.15;;
56005;SDS011;41888;44.696;10.522;2023-04-16T07:27:36;9.90;;;3.70;;
56005;SDS011;41888;44.696;10.522;2023-04-16T07:30:02;7.13;;;3.78;;
56005;SDS011;41888;44.696;10.522;2023-04-16T07:32:29;6.93;;;2.90;;
56005;SDS011;41888;44.696;10.522;2023-04-16T07:34:55;6.60;;;3.45;;
56005;SDS011;41888;44.696;10.522;2023-04-16T07:37:21;8.93;;;3.20;;
56005;SDS011;41888;44.696;10.522;2023-04-16T07:39:48;5.20;;;3.38;;
56005;SDS011;41888;44.696;10.522;2023-04-16T07:42:14;5.78;;;2.55;;
56005;SDS011;41888;44.696;10.522;2023-04-16T07:44:41;8.88;;;3.10;;
56005;SDS011;41888;44.696;10.522;2023-04-16T07:47:07;8.13;;;2.90;;
56005;SDS011;41888;44.696;10.522;2023-04-16T07:49:33;9.23;;;3.92;;
56005;SDS011;41888;44.696;10.522;2023-04-16T07:51:59;6.30;;;3.85;;
56005;SDS011;41888;44.696;10.522;2023-04-16T07:54:26;9.43;;;3.45;;
56005;SDS011;41888;44.696;10.522;2023-04-16T07:56:52;6.70;;;3.05;;
56005;SDS011;41888;44.696;10.522;2023-04-16T07:59:18;7.57;;;4.50;;
56005;SDS011;41888;44.696;10.522;2023-04-16T08:01:45;6.50;;;3.63;;
56005;SDS011;41888;44.696;10.522;2023-04-16T08:04:11;6.20;;;2.72;;
56005;SDS011;41888;44.696;10.522;2023-04-16T08:06:38;7.82;;;3.30;;
56005;SDS011;41888;44.696;10.522;2023-04-16T08:09:04;6.20;;;3.05;;
56005;SDS011;41888;44.696;10.522;2023-04-16T08:11:30;9.70;;;4.55;;
56005;SDS011;41888;44.696;10.522;2023-04-16T08:13:57;5.70;;;2.88;;
56005;SDS011;41888;44.696;10.522;2023-04-16T08:16:23;5.03;;;2.72;;
56005;SDS011;41888;44.696;10.522;2023-04-16T08:18:49;7.28;;;2.85;;
56005;SDS011;41888;44.696;10.522;2023-04-16T08:21:15;6.18;;;2.80;;
56005;SDS011;41888;44.696;10.522;2023-04-16T08:23:41;6.97;;;2.63;;
56005;SDS011;41888;44.696;10.522;2023-04-16T08:26:07;8.13;;;3.08;;
56005;SDS011;41888;44.696;10.522;2023-04-16T08:28:34;6.60;;;2.33;;
56005;SDS011;41888;44.696;10.522;2023-04-16T08:31:00;8.45;;;3.20;;
56005;SDS011;41888;44.696;10.522;2023-04-16T08:33:26;8.07;;;3.25;;
56005;SDS011;41888;44.696;10.522;2023-04-16T08:35:52;12.13;;;1.98;;
56005;SDS011;41888;44.696;10.522;2023-04-16T08:38:18;10.10;;;2.72;;
56005;SDS011;41888;44.696;10.522;2023-04-16T08:40:44;6.93;;;2.17;;
56005;SDS011;41888;44.696;10.522;2023-04-16T08:43:12;6.50;;;2.13;;
56005;SDS011;41888;44.696;10.522;2023-04-16T08:45:40;9.35;;;2.10;;
56005;SDS011;41888;44.696;10.522;2023-04-16T08:48:08;7.30;;;2.33;;
56005;SDS011;41888;44.696;10.522;2023-04-16T08:50:36;11.43;;;3.72;;
56005;SDS011;41888;44.696;10.522;2023-04-16T08:53:04;7.20;;;2.92;;
56005;SDS011;41888;44.696;10.522;2023-04-16T08:55:34;8.90;;;2.90;;
56005;SDS011;41888;44.696;10.522;2023-04-16T08:58:04;4.75;;;2.17;;
56005;SDS011;41888;44.696;10.522;2023-04-16T09:00:38;10.70;;;3.38;;
56005;SDS011;41888;44.696;10.522;2023-04-16T09:03:07;19.33;;;2.75;;
56005;SDS011;41888;44.696;10.522;2023-04-16T09:05:35;10.05;;;3.17;;
56005;SDS011;41888;44.696;10.522;2023-04-16T09:08:01;6.35;;;2.55;;
56005;SDS011;41888;44.696;10.522;2023-04-16T09:10:28;5.35;;;2.50;;
56005;SDS011;41888;44.696;10.522;2023-04-16T09:12:55;6.10;;;2.55;;
56005;SDS011;41888;44.696;10.522;2023-04-16T09:15:22;5.25;;;3.05;;
56005;SDS011;41888;44.696;10.522;2023-04-16T09:17:49;7.32;;;3.03;;
56005;SDS011;41888;44.696;10.522;2023-04-16T09:20:16;6.47;;;2.08;;
56005;SDS011;41888;44.696;10.522;2023-04-16T09:22:43;8.00;;;2.92;;
56005;SDS011;41888;44.696;10.522;2023-04-16T09:25:10;3.03;;;1.40;;
56005;SDS011;41888;44.696;10.522;2023-04-16T09:27:37;4.15;;;1.80;;
56005;SDS011;41888;44.696;10.522;2023-04-16T09:30:25;6.15;;;1.95;;
56005;SDS011;41888;44.696;10.522;2023-04-16T09:33:10;5.80;;;1.90;;
56005;SDS011;41888;44.696;10.522;2023-04-16T09:38:13;3.15;;;1.33;;
56005;SDS011;41888;44.696;10.522;2023-04-16T09:40:40;5.15;;;1.90;;
56005;SDS011;41888;44.696;10.522;2023-04-16T09:43:10;5.78;;;1.67;;
56005;SDS011;41888;44.696;10.522;2023-04-16T09:45:50;4.45;;;1.95;;
56005;SDS011;41888;44.696;10.522;2023-04-16T09:48:28;5.53;;;1.80;;
56005;SDS011;41888;44.696;10.522;2023-04-16T09:50:54;5.18;;;2.38;;
56005;SDS011;41888;44.696;10.522;2023-04-16T09:53:24;6.00;;;1.92;;
56005;SDS011;41888;44.696;10.522;2023-04-16T09:55:55;6.15;;;1.80;;
56005;SDS011;41888;44.696;10.522;2023-04-16T09:58:22;3.88;;;1.48;;
56005;SDS011;41888;44.696;10.522;2023-04-16T10:00:48;3.35;;;1.00;;
56005;SDS011;41888;44.696;10.522;2023-04-16T10:03:41;5.00;;;1.60;;
56005;SDS011;41888;44.696;10.522;2023-04-16T10:06:14;3.13;;;0.80;;
56005;SDS011;41888;44.696;10.522;2023-04-16T10:08:50;3.30;;;1.10;;
56005;SDS011;41888;44.696;10.522;2023-04-16T10:11:18;1.73;;;1.10;;
56005;SDS011;41888;44.696;10.522;2023-04-16T10:13:45;5.72;;;1.35;;
56005;SDS011;41888;44.696;10.522;2023-04-16T10:16:11;2.47;;;1.10;;
56005;SDS011;41888;44.696;10.522;2023-04-16T10:18:39;6.78;;;1.20;;
56005;SDS011;41888;44.696;10.522;2023-04-16T10:21:06;5.80;;;1.55;;
56005;SDS011;41888;44.696;10.522;2023-04-16T10:23:40;3.20;;;1.30;;
56005;SDS011;41888;44.696;10.522;2023-04-16T10:26:07;3.60;;;1.40;;
56005;SDS011;41888;44.696;10.522;2023-04-16T10:28:34;4.63;;;1.13;;
56005;SDS011;41888;44.696;10.522;2023-04-16T10:31:01;3.72;;;1.10;;
56005;SDS011;41888;44.696;10.522;2023-04-16T10:33:31;3.40;;;1.23;;
56005;SDS011;41888;44.696;10.522;2023-04-16T10:36:08;2.20;;;1.08;;
56005;SDS011;41888;44.696;10.522;2023-04-16T10:38:45;4.03;;;1.10;;
56005;SDS011;41888;44.696;10.522;2023-04-16T10:41:13;3.08;;;1.00;;
56005;SDS011;41888;44.696;10.522;2023-04-16T10:43:43;3.13;;;1.02;;
56005;SDS011;41888;44.696;10.522;2023-04-16T10:46:19;1.73;;;0.90;;
56005;SDS011;41888;44.696;10.522;2023-04-16T10:48:49;2.22;;;0.70;;
56005;SDS011;41888;44.696;10.522;2023-04-16T10:51:23;2.60;;;1.10;;
56005;SDS011;41888;44.696;10.522;2023-04-16T10:53:53;4.53;;;2.53;;
56005;SDS011;41888;44.696;10.522;2023-04-16T10:56:24;1.63;;;1.08;;
56005;SDS011;41888;44.696;10.522;2023-04-16T10:58:52;2.25;;;1.08;;
56005;SDS011;41888;44.696;10.522;2023-04-16T11:01:34;3.30;;;1.15;;
56005;SDS011;41888;44.696;10.522;2023-04-16T11:07:01;2.00;;;0.90;;
56005;SDS011;41888;44.696;10.522;2023-04-16T11:09:56;3.00;;;1.38;;
56005;SDS011;41888;44.696;10.522;2023-04-16T11:12:33;2.13;;;0.90;;
56005;SDS011;41888;44.696;10.522;2023-04-16T11:20:08;2.28;;;0.73;;
56005;SDS011;41888;44.696;10.522;2023-04-16T11:22:35;1.63;;;0.85;;
56005;SDS011;41888;44.696;10.522;2023-04-16T11:25:02;2.67;;;0.85;;
56005;SDS011;41888;44.696;10.522;2023-04-16T11:27:29;0.98;;;0.60;;
56005;SDS011;41888;44.696;10.522;2023-04-16T11:30:05;1.90;;;0.70;;
56005;SDS011;41888;44.696;10.522;2023-04-16T11:32:36;1.45;;;0.90;;
56005;SDS011;41888;44.696;10.522;2023-04-16T11:35:04;1.55;;;0.73;;
56005;SDS011;41888;44.696;10.522;2023-04-16T11:37:41;1.63;;;0.52;;
56005;SDS011;41888;44.696;10.522;2023-04-16T11:40:08;1.48;;;0.70;;
56005;SDS011;41888;44.696;10.522;2023-04-16T11:42:35;1.83;;;0.70;;
56005;SDS011;41888;44.696;10.522;2023-04-16T11:45:05;3.10;;;0.80;;
56005;SDS011;41888;44.696;10.522;2023-04-16T11:47:41;1.42;;;0.80;;
56005;SDS011;41888;44.696;10.522;2023-04-16T11:50:20;1.58;;;0.80;;
56005;SDS011;41888;44.696;10.522;2023-04-16T11:52:51;3.67;;;1.08;;
56005;SDS011;41888;44.696;10.522;2023-04-16T11:55:19;1.92;;;0.57;;
56005;SDS011;41888;44.696;10.522;2023-04-16T11:57:46;1.98;;;0.80;;
56005;SDS011;41888;44.696;10.522;2023-04-16T12:00:13;3.83;;;1.95;;
56005;SDS011;41888;44.696;10.522;2023-04-16T12:02:57;1.45;;;0.50;;
56005;SDS011;41888;44.696;10.522;2023-04-16T12:05:31;3.70;;;1.00;;
56005;SDS011;41888;44.696;10.522;2023-04-16T12:08:03;2.40;;;0.57;;
56005;SDS011;41888;44.696;10.522;2023-04-16T12:10:31;3.50;;;1.10;;
56005;SDS011;41888;44.696;10.522;2023-04-16T12:13:09;1.95;;;0.80;;
56005;SDS011;41888;44.696;10.522;2023-04-16T12:15:46;1.13;;;0.60;;
56005;SDS011;41888;44.696;10.522;2023-04-16T12:18:14;3.10;;;1.00;;
56005;SDS011;41888;44.696;10.522;2023-04-16T12:20:41;2.45;;;1.00;;
56005;SDS011;41888;44.696;10.522;2023-04-16T12:23:09;3.10;;;0.70;;
56005;SDS011;41888;44.696;10.522;2023-04-16T12:25:46;4.90;;;0.88;;
56005;SDS011;41888;44.696;10.522;2023-04-16T12:28:14;2.75;;;0.85;;
56005;SDS011;41888;44.696;10.522;2023-04-16T12:30:50;1.00;;;0.60;;
56005;SDS011;41888;44.696;10.522;2023-04-16T12:33:17;1.70;;;0.80;;
56005;SDS011;41888;44.696;10.522;2023-04-16T12:35:45;1.38;;;0.75;;
56005;SDS011;41888;44.696;10.522;2023-04-16T12:38:11;1.42;;;0.80;;
56005;SDS011;41888;44.696;10.522;2023-04-16T12:40:39;1.95;;;0.82;;
56005;SDS011;41888;44.696;10.522;2023-04-16T12:43:05;1.35;;;0.70;;
56005;SDS011;41888;44.696;10.522;2023-04-16T12:45:33;3.05;;;1.45;;
56005;SDS011;41888;44.696;10.522;2023-04-16T12:47:59;1.42;;;0.50;;
56005;SDS011;41888;44.696;10.522;2023-04-16T12:50:25;1.75;;;0.80;;
56005;SDS011;41888;44.696;10.522;2023-04-16T12:52:55;1.67;;;0.80;;
56005;SDS011;41888;44.696;10.522;2023-04-16T12:55:22;1.40;;;0.80;;
56005;SDS011;41888;44.696;10.522;2023-04-16T12:57:49;2.30;;;1.00;;
56005;SDS011;41888;44.696;10.522;2023-04-16T13:00:17;1.00;;;0.60;;
56005;SDS011;41888;44.696;10.522;2023-04-16T13:02:44;2.70;;;0.77;;
56005;SDS011;41888;44.696;10.522;2023-04-16T13:05:10;1.23;;;0.90;;
56005;SDS011;41888;44.696;10.522;2023-04-16T13:07:38;1.27;;;0.80;;
56005;SDS011;41888;44.696;10.522;2023-04-16T13:10:05;3.05;;;1.25;;
56005;SDS011;41888;44.696;10.522;2023-04-16T13:12:32;2.20;;;1.05;;
56005;SDS011;41888;44.696;10.522;2023-04-16T13:14:58;1.75;;;0.90;;
56005;SDS011;41888;44.696;10.522;2023-04-16T13:17:24;1.48;;;0.75;;
56005;SDS011;41888;44.696;10.522;2023-04-16T13:19:50;1.65;;;0.80;;
56005;SDS011;41888;44.696;10.522;2023-04-16T13:22:16;2.72;;;0.55;;
56005;SDS011;41888;44.696;10.522;2023-04-16T13:24:43;1.42;;;0.90;;
56005;SDS011;41888;44.696;10.522;2023-04-16T13:27:10;3.15;;;1.42;;
56005;SDS011;41888;44.696;10.522;2023-04-16T13:29:36;2.67;;;1.00;;
56005;SDS011;41888;44.696;10.522;2023-04-16T13:32:02;3.13;;;1.77;;
56005;SDS011;41888;44.696;10.522;2023-04-16T13:34:29;2.47;;;1.13;;
56005;SDS011;41888;44.696;10.522;2023-04-16T13:36:55;1.67;;;0.88;;
56005;SDS011;41888;44.696;10.522;2023-04-16T13:39:21;2.35;;;1.27;;
56005;SDS011;41888;44.696;10.522;2023-04-16T13:41:48;1.23;;;0.63;;
56005;SDS011;41888;44.696;10.522;2023-04-16T13:44:15;1.48;;;0.95;;
56005;SDS011;41888;44.696;10.522;2023-04-16T13:46:41;1.92;;;1.00;;
56005;SDS011;41888;44.696;10.522;2023-04-16T13:49:11;2.08;;;1.00;;
56005;SDS011;41888;44.696;10.522;2023-04-16T13:51:37;2.47;;;1.00;;
56005;SDS011;41888;44.696;10.522;2023-04-16T13:54:04;2.53;;;0.90;;
56005;SDS011;41888;44.696;10.522;2023-04-16T13:56:30;2.25;;;1.10;;
56005;SDS011;41888;44.696;10.522;2023-04-16T13:58:56;2.38;;;0.90;;
56005;SDS011;41888;44.696;10.522;2023-04-16T14:01:22;2.13;;;1.30;;
56005;SDS011;41888;44.696;10.522;2023-04-16T14:03:48;1.85;;;1.00;;
56005;SDS011;41888;44.696;10.522;2023-04-16T14:06:14;1.73;;;0.93;;
56005;SDS011;41888;44.696;10.522;2023-04-16T14:08:42;2.60;;;1.10;;
56005;SDS011;41888;44.696;10.522;2023-04-16T14:11:09;1.50;;;0.93;;
56005;SDS011;41888;44.696;10.522;2023-04-16T14:13:35;1.58;;;0.85;;
56005;SDS011;41888;44.696;10.522;2023-04-16T14:16:02;2.53;;;1.05;;
56005;SDS011;41888;44.696;10.522;2023-04-16T14:18:28;1.17;;;0.68;;
56005;SDS011;41888;44.696;10.522;2023-04-16T14:20:54;2.00;;;0.70;;
56005;SDS011;41888;44.696;10.522;2023-04-16T14:23:21;2.78;;;0.80;;
56005;SDS011;41888;44.696;10.522;2023-04-16T14:25:47;1.75;;;0.88;;
56005;SDS011;41888;44.696;10.522;2023-04-16T14:28:13;3.15;;;0.88;;
56005;SDS011;41888;44.696;10.522;2023-04-16T14:30:40;1.40;;;0.73;;
56005;SDS011;41888;44.696;10.522;2023-04-16T14:33:06;1.52;;;0.68;;
56005;SDS011;41888;44.696;10.522;2023-04-16T14:35:32;1.80;;;1.00;;
56005;SDS011;41888;44.696;10.522;2023-04-16T14:37:59;1.08;;;0.60;;
56005;SDS011;41888;44.696;10.522;2023-04-16T14:40:26;1.00;;;0.60;;
56005;SDS011;41888;44.696;10.522;2023-04-16T14:42:52;1.77;;;0.60;;
56005;SDS011;41888;44.696;10.522;2023-04-16T14:45:18;1.63;;;0.60;;